首页
METAR-TAF:

METAR-TAF

机场 :

萨尔瓦多奥斯卡·阿努尔福·罗梅罗-伊-加尔达梅斯主教国际机场

萨尔瓦多, 萨尔瓦多

纬度: 13-26N, 经度: 089-03W, 海拔: 25米

当前天气观测

该预报发布于33分钟前的20:50 UTC
风速8节,风向西转西南,在西之间变化
温度 32°C
湿度 63%
气压 1011 hPa
能见度10公里或以上
少量云层高于2700英尺
少量云层高于3700英尺, 积雨云.

METAR: MSLP 182050Z 24008KT 190V270 9999 FEW027 FEW037CB 32/24 Q1011 A2985 NOSIG CB TO NW

时间: 15:23 (21:23 UTC)

预报

该预报发布于5小时和58分钟前的15:25 UTC
预报有效从18日的 18点(UTC)到 19日的 18点(UTC)
风速7节,风向西转西南
能见度10公里或以上
散云层高于2700英尺
少量云层高于3700英尺, 积雨云.
从 19日的 0000点(UTC)
风速2节,风向多变
能见度10公里或以上
少量云层高于2300英尺
少量云层高于3700英尺, 积雨云.
散云层高于7000英尺
短暂存在
从 19日的 04点(UTC)到 19日的 08点(UTC)
风速5节,风向东转东北
能見度: 8000
雷暴, 小雨
从 19日的 1300点(UTC)
风速4节,风向东转东北
能见度10公里或以上
少量云层高于2300英尺

TAF: MSLP 181525Z 1818/1918 24007KT 9999 SCT027 FEW037CB TX32/1819Z TN24/1910Z FM190000 VRB02KT 9999 FEW023 FEW037CB SCT070 TEMPO 1904/1908 06005KT 8000 -TSRA FM191300 06004KT 9999 FEW023

超过4000个机场的气象观测和天气预报(METAR&TAF报告)。

可查询的气象台以黄色和红色小点在地图上表示。

将鼠标移到小点上方,可查看气象台名称。

然后点击查看天气观测和预报。

如需切换地图:点击带黑十字的绿色按钮放大地图;点击带横线的绿色按钮缩小地图;或者点击绿色箭头查看邻近地区的地图。


METAR-TAF: